Time;durP1;ratioP1;P1;durP2;ratioP2;P2;SDS_P1;SDS_P2;PMS_P1;PMS_P2;Temp;Humidity;BMP_temperature;BMP_pressure;BME280_temperature;BME280_humidity;BME280_pressure;Samples;Min_cycle;Max_cycle;Signal;HPM_P1;HPM_P2
2023/01/29 00:02:05;;;;;;;25.05;14.30;;;-1.00;82.40;;;;;;5032215;28;20187;-76
2023/01/29 00:04:33;;;;;;;27.38;14.57;;;-1.00;82.90;;;;;;5032294;28;20237;-76
2023/01/29 00:07:02;;;;;;;23.63;13.93;;;-0.90;82.90;;;;;;5031880;28;20241;-76
2023/01/29 00:09:34;;;;;;;23.05;12.65;;;-0.90;82.30;;;;;;5032218;28;20194;-76
2023/01/29 00:12:02;;;;;;;23.35;13.90;;;-0.90;83.10;;;;;;5031930;28;20606;-76
2023/01/29 00:14:29;;;;;;;18.70;13.00;;;-0.90;83.30;;;;;;5032302;28;20254;-76
2023/01/29 00:16:56;;;;;;;20.10;11.27;;;-0.80;83.70;;;;;;5031839;28;20215;-77
2023/01/29 00:19:26;;;;;;;17.55;11.50;;;-0.80;83.70;;;;;;5032006;28;20222;-76
2023/01/29 00:21:54;;;;;;;24.45;13.07;;;-0.80;83.70;;;;;;5031799;28;20195;-76
2023/01/29 00:24:23;;;;;;;23.42;13.50;;;-0.60;84.50;;;;;;5032385;28;20194;-76
2023/01/29 00:26:51;;;;;;;19.38;11.80;;;-0.60;84.50;;;;;;5031735;28;20282;-76
2023/01/29 00:29:20;;;;;;;22.05;14.70;;;-0.60;84.90;;;;;;5031646;28;20191;-76
2023/01/29 00:31:48;;;;;;;23.38;13.85;;;-0.60;84.70;;;;;;5031130;28;20661;-77
2023/01/29 00:34:15;;;;;;;21.30;12.27;;;-0.60;84.00;;;;;;5026712;28;20234;-76
2023/01/29 00:36:44;;;;;;;20.48;12.68;;;-0.60;84.70;;;;;;5012402;28;20279;-76
2023/01/29 00:39:11;;;;;;;27.75;14.27;;;-0.60;85.10;;;;;;5023659;28;20215;-77
2023/01/29 00:47:29;;;;;;;22.17;13.65;;;-0.40;85.00;;;;;;5035833;28;20210;-76
2023/01/29 00:49:57;;;;;;;29.50;12.60;;;-0.40;84.70;;;;;;5035681;28;20202;-76
2023/01/29 00:52:24;;;;;;;19.63;13.15;;;-0.40;84.40;;;;;;5035502;28;20202;-76
2023/01/29 00:54:54;;;;;;;24.15;13.80;;;-0.30;84.50;;;;;;5034972;28;20230;-77
2023/01/29 00:57:24;;;;;;;23.63;15.95;;;-0.30;84.50;;;;;;5035141;28;20187;-76
2023/01/29 00:59:51;;;;;;;28.38;15.88;;;-0.30;84.80;;;;;;5035339;28;20230;-76
2023/01/29 01:05:06;;;;;;;32.17;15.93;;;-0.10;85.00;;;;;;5034999;28;20189;-76
2023/01/29 01:07:34;;;;;;;27.48;14.50;;;-0.10;84.70;;;;;;5035253;28;20195;-76
2023/01/29 01:12:49;;;;;;;22.85;14.23;;;-0.10;84.10;;;;;;5035123;28;20190;-76
2023/01/29 01:15:17;;;;;;;28.48;15.10;;;0.00;84.20;;;;;;4995886;28;20224;-76
2023/01/29 01:17:45;;;;;;;25.30;15.25;;;-0.10;83.90;;;;;;4995982;28;20280;-76
2023/01/29 01:20:13;;;;;;;25.55;14.73;;;-0.10;84.20;;;;;;5033999;28;20265;-76
2023/01/29 01:22:42;;;;;;;23.13;14.95;;;-0.10;84.60;;;;;;5034919;28;20191;-76
2023/01/29 01:25:12;;;;;;;21.33;15.13;;;-0.10;83.80;;;;;;5034698;28;20225;-75
2023/01/29 01:27:40;;;;;;;29.00;15.85;;;0.00;84.10;;;;;;5034921;28;20199;-76
2023/01/29 01:30:12;;;;;;;25.67;15.13;;;0.00;83.70;;;;;;5034126;28;20183;-76
2023/01/29 01:32:40;;;;;;;25.73;15.10;;;0.00;83.60;;;;;;5034201;28;20198;-76
2023/01/29 01:35:09;;;;;;;23.67;13.85;;;-0.10;83.30;;;;;;5034801;28;20314;-77
2023/01/29 01:37:37;;;;;;;23.67;13.77;;;-0.10;84.10;;;;;;5034237;28;20187;-76
2023/01/29 01:40:11;;;;;;;22.33;13.70;;;-0.20;84.20;;;;;;5034641;28;20183;-76
2023/01/29 01:42:39;;;;;;;22.02;13.07;;;-0.20;84.70;;;;;;5034418;28;20226;-76
2023/01/29 01:45:21;;;;;;;25.90;13.70;;;-0.10;84.70;;;;;;5034690;28;20199;-76
2023/01/29 01:47:51;;;;;;;23.40;14.20;;;-0.10;84.90;;;;;;5034192;28;20265;-77
2023/01/29 01:50:23;;;;;;;26.50;16.58;;;-0.10;84.90;;;;;;5034346;28;20210;-77
2023/01/29 01:52:53;;;;;;;24.08;14.75;;;0.00;84.10;;;;;;5033710;28;20195;-77
2023/01/29 01:55:26;;;;;;;31.30;18.83;;;0.00;84.60;;;;;;5034383;28;20226;-75
2023/01/29 01:57:58;;;;;;;28.50;16.45;;;0.00;85.00;;;;;;5033851;28;20672;-75
2023/01/29 02:00:27;;;;;;;26.85;14.70;;;0.00;84.80;;;;;;5034294;28;20194;-76
2023/01/29 02:11:24;;;;;;;32.17;16.70;;;0.10;85.10;;;;;;5032639;28;20630;-76
2023/01/29 02:13:53;;;;;;;32.92;16.75;;;0.00;85.80;;;;;;5033864;28;20642;-77
2023/01/29 02:16:25;;;;;;;31.30;15.85;;;0.10;85.80;;;;;;5033732;28;20214;-76
2023/01/29 02:18:53;;;;;;;26.65;15.70;;;0.10;86.00;;;;;;5034014;28;20294;-76
2023/01/29 02:21:59;;;;;;;26.58;14.82;;;0.20;86.10;;;;;;5033543;28;20195;-76
2023/01/29 02:25:08;;;;;;;23.45;14.93;;;0.20;86.10;;;;;;5004664;28;20202;-76
2023/01/29 02:27:53;;;;;;;22.67;14.65;;;0.20;86.20;;;;;;5031326;28;20191;-76
2023/01/29 02:30:34;;;;;;;25.65;14.95;;;0.20;86.10;;;;;;5031460;28;20373;-76
2023/01/29 02:33:09;;;;;;;25.10;14.13;;;0.20;86.30;;;;;;5031822;28;20187;-76
2023/01/29 02:35:43;;;;;;;26.98;15.73;;;0.30;86.40;;;;;;5032135;28;20218;-76
2023/01/29 02:38:30;;;;;;;26.25;15.30;;;0.30;86.20;;;;;;5032140;28;20191;-77
2023/01/29 02:41:02;;;;;;;22.63;14.65;;;0.30;86.00;;;;;;5031965;28;20237;-77
2023/01/29 02:43:44;;;;;;;26.50;16.88;;;0.30;85.60;;;;;;5032614;28;20839;-76
2023/01/29 02:46:19;;;;;;;22.98;13.20;;;0.30;85.20;;;;;;5032136;28;20220;-76
2023/01/29 02:48:54;;;;;;;30.75;17.35;;;0.30;85.30;;;;;;5032310;28;20186;-76
2023/01/29 02:51:27;;;;;;;27.17;14.65;;;0.30;85.50;;;;;;5031347;28;20233;-76
2023/01/29 02:54:04;;;;;;;28.20;16.17;;;0.30;85.20;;;;;;5031762;28;20223;-76
2023/01/29 02:56:37;;;;;;;25.75;15.00;;;0.40;85.20;;;;;;5032078;28;20608;-76
2023/01/29 02:59:11;;;;;;;28.52;14.90;;;0.40;84.30;;;;;;5032038;28;20229;-76
2023/01/29 03:01:46;;;;;;;23.80;14.77;;;0.40;84.00;;;;;;5031936;28;20191;-75
2023/01/29 03:04:19;;;;;;;29.25;15.43;;;0.30;84.20;;;;;;5031929;28;20547;-76
2023/01/29 03:06:53;;;;;;;27.25;17.55;;;0.20;84.70;;;;;;5031691;28;20241;-76
2023/01/29 03:09:28;;;;;;;25.83;15.18;;;0.20;85.10;;;;;;5032265;28;20194;-76
2023/01/29 03:11:59;;;;;;;25.50;14.93;;;0.30;85.40;;;;;;5031532;28;20270;-76
2023/01/29 03:15:10;;;;;;;25.50;15.77;;;0.40;85.40;;;;;;5032205;28;20203;-76
2023/01/29 03:17:24;;;;;;;24.00;15.60;;;0.40;85.00;;;;;;5031561;28;20222;-76
2023/01/29 03:19:51;;;;;;;27.80;14.77;;;0.40;84.70;;;;;;5031989;28;20183;-76
2023/01/29 03:22:22;;;;;;;28.90;16.80;;;0.30;84.70;;;;;;5032002;28;20576;-76
2023/01/29 03:33:17;;;;;;;27.50;15.50;;;0.40;84.40;;;;;;5031646;28;20183;-76
2023/01/29 03:35:51;;;;;;;28.15;16.80;;;0.40;84.30;;;;;;5031139;28;20222;-76
2023/01/29 03:38:20;;;;;;;27.45;17.92;;;0.40;84.20;;;;;;5031809;28;20292;-76
2023/01/29 03:40:58;;;;;;;29.60;16.67;;;0.40;84.30;;;;;;5032010;28;20237;-76
2023/01/29 03:43:34;;;;;;;25.25;14.95;;;0.30;84.00;;;;;;5032242;28;20605;-75
2023/01/29 03:46:08;;;;;;;27.58;16.50;;;0.30;84.20;;;;;;5032227;28;20703;-75
2023/01/29 03:48:41;;;;;;;27.42;15.15;;;0.30;84.10;;;;;;5032631;28;20217;-75
2023/01/29 03:51:20;;;;;;;24.42;16.08;;;0.30;83.90;;;;;;5031727;28;20266;-75
2023/01/29 03:53:52;;;;;;;28.80;16.40;;;0.30;84.30;;;;;;5032503;28;20582;-76
2023/01/29 03:56:35;;;;;;;28.25;16.23;;;0.30;84.10;;;;;;5031831;28;20305;-75
2023/01/29 03:59:12;;;;;;;25.15;16.02;;;0.30;84.10;;;;;;5032660;28;20293;-75
2023/01/29 04:01:46;;;;;;;31.35;17.60;;;0.30;84.10;;;;;;5032190;28;20269;-75
2023/01/29 04:04:19;;;;;;;38.80;17.00;;;0.30;84.70;;;;;;5032445;28;20191;-75
2023/01/29 04:06:51;;;;;;;28.45;17.70;;;0.30;84.80;;;;;;5032015;28;20191;-76
2023/01/29 04:09:25;;;;;;;25.27;15.20;;;0.30;84.80;;;;;;5032534;28;20226;-75
2023/01/29 04:12:00;;;;;;;24.80;15.27;;;0.30;84.80;;;;;;5031873;28;20581;-76
2023/01/29 04:14:28;;;;;;;23.98;15.07;;;0.30;84.70;;;;;;5032399;28;20209;-76
2023/01/29 04:17:00;;;;;;;26.95;15.90;;;0.30;84.70;;;;;;5035546;28;20254;-76
2023/01/29 04:19:31;;;;;;;27.27;14.40;;;0.30;84.50;;;;;;5035996;28;20202;-76
2023/01/29 04:22:05;;;;;;;29.75;16.98;;;0.30;84.90;;;;;;5036040;28;20198;-76
2023/01/29 04:24:34;;;;;;;27.20;17.63;;;0.30;84.80;;;;;;5035823;28;20194;-76
2023/01/29 04:27:20;;;;;;;26.98;17.88;;;0.30;85.40;;;;;;5036255;28;20257;-76
2023/01/29 04:30:04;;;;;;;24.92;17.08;;;0.30;84.50;;;;;;5035365;28;20197;-75
2023/01/29 04:32:41;;;;;;;28.60;16.77;;;0.30;84.60;;;;;;5036070;28;20191;-75
2023/01/29 04:35:23;;;;;;;25.05;16.30;;;0.30;85.40;;;;;;5035271;28;20187;-75
2023/01/29 04:37:58;;;;;;;27.92;17.83;;;0.40;84.60;;;;;;5035464;28;20261;-76
2023/01/29 04:40:33;;;;;;;30.83;16.98;;;0.30;84.50;;;;;;5035700;28;20260;-76
2023/01/29 04:43:06;;;;;;;27.88;16.70;;;0.30;85.10;;;;;;5035951;28;20662;-76
2023/01/29 04:45:44;;;;;;;31.48;17.35;;;0.30;85.40;;;;;;5035290;28;20191;-75
2023/01/29 04:48:19;;;;;;;26.33;15.18;;;0.30;85.30;;;;;;5035693;28;20245;-76
2023/01/29 04:50:58;;;;;;;26.00;16.95;;;0.30;85.80;;;;;;5034365;28;20712;-76
2023/01/29 04:53:42;;;;;;;26.98;16.02;;;0.30;85.80;;;;;;5035443;28;20222;-76
2023/01/29 04:56:17;;;;;;;27.60;16.55;;;0.40;85.80;;;;;;5035345;28;20624;-75
2023/01/29 04:58:47;;;;;;;27.17;18.08;;;0.40;85.60;;;;;;5035421;28;20194;-76
2023/01/29 05:01:18;;;;;;;27.77;16.50;;;0.40;85.50;;;;;;5035027;28;20190;-75
2023/01/29 05:03:50;;;;;;;24.70;14.77;;;0.40;85.60;;;;;;5035761;28;20198;-76
2023/01/29 05:06:20;;;;;;;25.50;15.98;;;0.40;85.70;;;;;;5035164;28;20190;-76
2023/01/29 05:08:49;;;;;;;24.77;16.48;;;0.40;85.50;;;;;;5035426;28;20278;-76
2023/01/29 05:11:18;;;;;;;30.75;14.90;;;0.40;85.60;;;;;;5034949;28;20198;-76
2023/01/29 05:13:47;;;;;;;28.08;18.50;;;0.40;85.70;;;;;;5035689;28;20191;-76
2023/01/29 05:16:19;;;;;;;27.80;18.05;;;0.40;86.00;;;;;;5034916;28;20693;-75
2023/01/29 05:18:47;;;;;;;22.85;15.73;;;0.40;86.10;;;;;;5035390;28;20279;-76
2023/01/29 05:21:14;;;;;;;22.50;15.20;;;0.40;85.90;;;;;;5034774;28;20197;-76
2023/01/29 05:23:52;;;;;;;27.40;15.80;;;0.40;86.20;;;;;;5035238;28;20759;-76
2023/01/29 05:29:05;;;;;;;29.05;16.98;;;0.40;86.20;;;;;;5035261;28;20195;-75
2023/01/29 05:31:32;;;;;;;27.90;16.88;;;0.40;86.40;;;;;;5034702;28;20531;-75
2023/01/29 05:34:00;;;;;;;22.17;14.93;;;0.40;86.00;;;;;;5018288;28;20224;-77
2023/01/29 05:36:28;;;;;;;29.73;17.38;;;0.50;86.30;;;;;;5028231;28;20211;-76
2023/01/29 05:38:57;;;;;;;27.85;15.23;;;0.50;85.80;;;;;;5034600;28;20187;-76
2023/01/29 05:41:26;;;;;;;25.95;17.35;;;0.50;85.80;;;;;;5034907;28;20191;-76
2023/01/29 05:43:53;;;;;;;23.92;15.75;;;0.50;86.00;;;;;;5034926;28;20222;-75
2023/01/29 05:46:21;;;;;;;30.88;16.90;;;0.50;86.00;;;;;;5034909;28;20207;-75
2023/01/29 05:48:48;;;;;;;28.85;16.83;;;0.50;86.20;;;;;;5034658;28;20264;-75
2023/01/29 05:51:15;;;;;;;30.67;17.35;;;0.50;86.10;;;;;;5034224;28;20187;-75
2023/01/29 05:53:43;;;;;;;26.58;15.85;;;0.50;86.20;;;;;;5034617;28;20586;-75
2023/01/29 05:56:12;;;;;;;26.45;17.65;;;0.50;86.20;;;;;;5034115;28;20215;-75
2023/01/29 05:58:39;;;;;;;32.33;17.00;;;0.60;86.30;;;;;;5034596;28;20194;-76
2023/01/29 06:01:11;;;;;;;28.73;17.67;;;0.60;86.00;;;;;;5034129;28;20191;-75
2023/01/29 06:03:39;;;;;;;27.35;16.42;;;0.60;86.10;;;;;;5034438;28;20187;-75
2023/01/29 06:06:09;;;;;;;25.88;17.00;;;0.60;85.90;;;;;;5034261;28;20190;-75
2023/01/29 06:08:36;;;;;;;25.38;15.23;;;0.60;85.70;;;;;;5034458;28;20536;-76
2023/01/29 06:11:06;;;;;;;24.40;15.82;;;0.60;85.80;;;;;;5034162;28;20191;-75
2023/01/29 06:13:36;;;;;;;28.30;16.63;;;0.50;86.40;;;;;;5034199;28;20190;-75
2023/01/29 06:16:06;;;;;;;23.85;15.88;;;0.60;86.40;;;;;;5033819;28;20191;-75
2023/01/29 06:18:38;;;;;;;28.55;16.75;;;0.50;86.40;;;;;;5034448;28;20230;-75
2023/01/29 06:21:08;;;;;;;33.53;16.05;;;0.60;86.90;;;;;;5033374;28;20648;-75
2023/01/29 06:23:35;;;;;;;28.73;16.33;;;0.50;86.60;;;;;;5034268;28;20191;-76
2023/01/29 06:26:05;;;;;;;29.75;18.20;;;0.60;87.00;;;;;;5033994;28;20191;-75
2023/01/29 06:28:32;;;;;;;29.85;18.83;;;0.60;87.10;;;;;;5032733;28;20191;-75
2023/01/29 06:31:03;;;;;;;25.60;18.45;;;0.60;86.60;;;;;;5033529;28;20708;-76
2023/01/29 06:33:30;;;;;;;26.77;16.20;;;0.60;86.50;;;;;;5033936;28;20278;-75
2023/01/29 06:35:58;;;;;;;30.23;17.90;;;0.60;86.40;;;;;;5033865;28;20321;-75
2023/01/29 06:38:26;;;;;;;31.40;17.88;;;0.60;86.40;;;;;;5032522;28;20187;-75
2023/01/29 06:40:53;;;;;;;32.70;19.95;;;0.60;86.00;;;;;;5033028;28;20188;-76
2023/01/29 06:43:28;;;;;;;28.85;18.00;;;0.50;85.80;;;;;;5033091;28;20190;-75
2023/01/29 06:45:57;;;;;;;25.15;16.80;;;0.40;86.20;;;;;;5033370;28;20187;-76
2023/01/29 06:48:26;;;;;;;30.88;17.95;;;0.50;86.40;;;;;;5033072;28;20760;-76
2023/01/29 06:50:54;;;;;;;37.22;21.60;;;0.40;86.20;;;;;;5033187;28;20214;-75
2023/01/29 06:53:21;;;;;;;34.50;18.90;;;0.40;86.20;;;;;;5032730;28;20771;-76
2023/01/29 06:55:52;;;;;;;28.70;18.23;;;0.30;86.20;;;;;;5033508;28;20195;-76
2023/01/29 06:58:20;;;;;;;34.13;18.50;;;0.30;86.20;;;;;;5032990;28;20697;-76
2023/01/29 07:00:48;;;;;;;28.75;17.48;;;0.30;86.60;;;;;;5032687;28;20733;-76
2023/01/29 07:03:15;;;;;;;27.70;16.38;;;0.40;86.70;;;;;;5029494;28;20666;-76
2023/01/29 07:05:50;;;;;;;30.77;18.13;;;0.40;87.00;;;;;;5012192;28;20274;-76
2023/01/29 07:08:17;;;;;;;30.20;17.58;;;0.50;87.30;;;;;;5011670;28;20257;-76
2023/01/29 07:10:44;;;;;;;26.85;16.88;;;0.60;87.40;;;;;;5015360;28;20192;-76
2023/01/29 07:13:12;;;;;;;30.80;18.08;;;0.60;87.10;;;;;;5011202;28;20200;-76
2023/01/29 07:15:39;;;;;;;30.23;19.75;;;0.80;87.60;;;;;;5011779;28;20187;-75
2023/01/29 07:18:11;;;;;;;24.08;15.45;;;0.90;87.10;;;;;;5011632;28;20222;-76
2023/01/29 07:20:40;;;;;;;28.67;18.92;;;1.00;85.40;;;;;;5015854;28;20870;-76
2023/01/29 07:23:11;;;;;;;32.60;18.50;;;0.90;84.70;;;;;;5014410;28;20192;-76
2023/01/29 07:25:39;;;;;;;28.10;18.17;;;0.90;84.60;;;;;;5011648;28;20199;-76
2023/01/29 07:28:09;;;;;;;29.05;19.77;;;1.00;85.70;;;;;;5015358;28;20208;-76
2023/01/29 07:30:36;;;;;;;26.90;18.38;;;1.00;84.80;;;;;;5012448;28;20242;-76
2023/01/29 07:33:09;;;;;;;28.95;17.90;;;1.00;84.70;;;;;;5011265;28;20198;-76
2023/01/29 07:35:38;;;;;;;27.77;17.55;;;1.00;83.90;;;;;;5013118;28;20199;-76
2023/01/29 07:38:06;;;;;;;27.83;16.85;;;1.10;83.90;;;;;;5011238;28;20251;-76
2023/01/29 07:40:35;;;;;;;25.02;16.67;;;1.10;83.90;;;;;;5014530;28;20184;-76
2023/01/29 07:43:05;;;;;;;25.23;16.52;;;1.10;84.20;;;;;;5011530;28;20622;-76
2023/01/29 07:45:34;;;;;;;23.52;17.98;;;1.10;83.10;;;;;;5011356;28;20196;-76
2023/01/29 07:48:03;;;;;;;31.40;19.75;;;1.20;82.70;;;;;;5010984;28;20654;-76
2023/01/29 07:50:32;;;;;;;32.97;17.27;;;1.20;82.30;;;;;;5012505;28;20188;-76
2023/01/29 07:53:00;;;;;;;29.33;17.90;;;1.20;82.70;;;;;;5013636;28;20616;-76
2023/01/29 07:55:27;;;;;;;26.55;16.77;;;1.40;80.70;;;;;;5010364;28;20188;-76
2023/01/29 07:58:00;;;;;;;27.48;15.95;;;1.50;81.10;;;;;;5010494;28;20246;-77
2023/01/29 08:00:28;;;;;;;32.38;18.17;;;1.70;81.50;;;;;;5015084;28;20605;-77
2023/01/29 08:03:03;;;;;;;33.65;18.30;;;2.00;80.10;;;;;;5010912;28;20184;-76
2023/01/29 08:05:31;;;;;;;30.05;15.32;;;2.30;79.20;;;;;;5011329;28;20195;-75
2023/01/29 08:07:59;;;;;;;26.35;16.38;;;2.50;77.90;;;;;;5015019;28;20202;-76
2023/01/29 08:10:29;;;;;;;30.77;17.92;;;2.90;79.40;;;;;;5012739;28;20188;-76
2023/01/29 08:12:59;;;;;;;28.27;17.75;;;3.40;78.00;;;;;;5011238;28;20200;-76
2023/01/29 08:15:26;;;;;;;24.75;15.85;;;3.80;74.70;;;;;;5014007;28;20238;-76
2023/01/29 08:17:54;;;;;;;31.98;19.55;;;4.10;72.60;;;;;;5010753;28;20220;-76
2023/01/29 08:20:23;;;;;;;27.63;17.80;;;4.50;71.40;;;;;;5006857;28;20195;-76
2023/01/29 08:22:58;;;;;;;29.83;18.08;;;4.80;69.60;;;;;;5010712;28;20360;-76
2023/01/29 08:25:25;;;;;;;32.15;19.65;;;4.90;66.30;;;;;;5011685;28;20186;-75
2023/01/29 08:27:52;;;;;;;28.77;17.10;;;5.30;67.90;;;;;;5006646;28;20201;-76
2023/01/29 08:30:21;;;;;;;27.58;16.67;;;5.50;64.40;;;;;;5013328;28;20197;-75
2023/01/29 08:32:49;;;;;;;23.75;15.50;;;5.70;61.00;;;;;;5017183;28;20195;-76
2023/01/29 08:35:17;;;;;;;25.45;17.38;;;5.80;62.20;;;;;;5013792;28;20204;-75
2023/01/29 08:37:44;;;;;;;23.08;15.80;;;6.10;60.10;;;;;;5015477;28;20206;-75
2023/01/29 08:40:12;;;;;;;26.42;19.08;;;6.40;59.40;;;;;;5019811;28;20677;-76
2023/01/29 08:42:41;;;;;;;23.65;15.30;;;6.70;60.00;;;;;;5011702;28;20200;-76
2023/01/29 08:45:09;;;;;;;23.10;16.70;;;6.90;57.00;;;;;;5010778;28;20208;-76
2023/01/29 08:47:38;;;;;;;23.33;17.27;;;7.00;56.10;;;;;;5009728;28;20205;-75
2023/01/29 08:50:06;;;;;;;22.33;15.93;;;7.50;56.20;;;;;;5011413;28;20271;-76
2023/01/29 08:52:33;;;;;;;17.98;13.98;;;8.10;54.90;;;;;;5010297;28;20272;-75
2023/01/29 08:55:01;;;;;;;19.05;14.45;;;8.30;52.00;;;;;;5007718;28;20219;-75
2023/01/29 08:57:28;;;;;;;20.00;14.55;;;8.30;50.40;;;;;;5009569;28;20614;-76
2023/01/29 08:59:55;;;;;;;20.38;13.93;;;8.50;49.70;;;;;;5013806;28;20937;-76
2023/01/29 09:02:22;;;;;;;22.20;16.27;;;8.60;49.80;;;;;;5011232;28;20253;-75
2023/01/29 09:04:51;;;;;;;18.23;12.90;;;8.90;49.50;;;;;;5012968;28;20188;-76
2023/01/29 09:07:20;;;;;;;20.70;15.05;;;9.40;48.60;;;;;;5012883;28;20192;-75
2023/01/29 09:09:47;;;;;;;22.52;14.65;;;9.50;46.40;;;;;;5016728;28;20192;-75
2023/01/29 09:12:14;;;;;;;23.08;14.65;;;9.70;46.80;;;;;;5009140;28;20291;-75
2023/01/29 09:14:41;;;;;;;21.85;15.30;;;10.00;44.30;;;;;;5013633;28;20396;-75
2023/01/29 09:17:13;;;;;;;20.65;14.80;;;10.30;44.60;;;;;;5013503;28;20305;-75
2023/01/29 09:19:40;;;;;;;19.80;15.65;;;10.60;44.20;;;;;;5014750;28;20192;-75
2023/01/29 09:22:08;;;;;;;22.77;15.85;;;11.10;43.50;;;;;;5013401;28;20192;-74
2023/01/29 09:24:36;;;;;;;19.20;14.63;;;11.30;41.70;;;;;;5016744;28;20187;-75
2023/01/29 09:27:03;;;;;;;20.88;15.82;;;11.40;42.00;;;;;;5013529;28;20270;-74
2023/01/29 09:29:31;;;;;;;22.48;16.92;;;11.80;41.70;;;;;;5012940;28;20592;-74
2023/01/29 09:31:58;;;;;;;19.25;16.52;;;12.00;40.30;;;;;;5014581;28;20199;-75
2023/01/29 09:34:25;;;;;;;21.42;14.88;;;12.00;40.00;;;;;;5014983;28;20275;-76
2023/01/29 09:36:52;;;;;;;19.73;14.93;;;12.20;40.40;;;;;;5013293;28;20212;-75
2023/01/29 09:39:21;;;;;;;18.77;13.82;;;12.60;40.60;;;;;;5008955;28;20930;-75
2023/01/29 09:42:00;;;;;;;17.55;13.50;;;13.00;39.10;;;;;;5013310;28;20290;-75
2023/01/29 09:44:40;;;;;;;14.95;13.20;;;13.40;38.00;;;;;;5017321;28;20223;-75
2023/01/29 09:47:14;;;;;;;21.60;16.42;;;13.50;36.70;;;;;;5017751;28;20192;-75
2023/01/29 09:49:45;;;;;;;20.10;13.60;;;13.70;37.00;;;;;;5012900;28;20195;-75
2023/01/29 09:52:18;;;;;;;19.27;13.53;;;14.00;36.10;;;;;;5013402;28;22629;-75
2023/01/29 09:54:55;;;;;;;18.83;14.80;;;14.20;35.20;;;;;;5013451;28;20907;-74
2023/01/29 09:57:27;;;;;;;15.77;13.37;;;14.40;34.60;;;;;;5014332;28;20577;-75
2023/01/29 09:59:55;;;;;;;17.03;12.23;;;14.50;32.80;;;;;;5013350;28;20995;-75
2023/01/29 10:02:49;;;;;;;16.77;13.57;;;14.50;33.60;;;;;;5008494;28;20975;-75
2023/01/29 10:05:40;;;;;;;17.40;12.40;;;14.70;32.90;;;;;;5012336;28;20427;-75
2023/01/29 10:08:45;;;;;;;16.63;13.17;;;14.80;32.40;;;;;;5012646;28;20441;-75
2023/01/29 10:11:23;;;;;;;17.10;13.20;;;15.00;32.80;;;;;;5005276;28;21011;-76
2023/01/29 10:14:01;;;;;;;16.53;14.73;;;15.20;32.70;;;;;;5012006;28;20531;-75
2023/01/29 10:16:41;;;;;;;17.27;14.60;;;15.50;32.30;;;;;;5014518;28;20461;-75
2023/01/29 10:19:33;;;;;;;17.83;14.43;;;16.00;30.70;;;;;;5011755;28;20485;-75
2023/01/29 10:22:26;;;;;;;17.13;13.00;;;16.10;30.60;;;;;;5014204;28;20443;-75
2023/01/29 10:25:00;;;;;;;18.70;13.37;;;16.20;30.40;;;;;;5012597;28;20458;-75
2023/01/29 10:27:33;;;;;;;15.83;12.73;;;16.60;29.60;;;;;;5012634;28;20525;-75
2023/01/29 10:30:03;;;;;;;15.37;11.77;;;16.70;29.40;;;;;;5012470;28;20439;-75
2023/01/29 10:32:31;;;;;;;14.10;11.10;;;16.80;29.10;;;;;;5015239;28;20438;-75
2023/01/29 10:35:02;;;;;;;18.47;11.93;;;16.80;28.60;;;;;;5012570;28;20562;-76
2023/01/29 10:37:40;;;;;;;14.97;12.27;;;16.90;28.10;;;;;;5015757;28;20442;-75
2023/01/29 10:40:20;;;;;;;13.17;10.87;;;16.90;28.30;;;;;;5010547;28;20439;-75
2023/01/29 10:42:56;;;;;;;15.77;11.83;;;16.90;28.20;;;;;;5012395;28;20442;-75
2023/01/29 10:45:40;;;;;;;14.00;11.80;;;16.90;28.00;;;;;;5013032;28;20442;-75
2023/01/29 10:48:41;;;;;;;13.57;10.60;;;17.10;28.40;;;;;;5012459;28;20446;-75
2023/01/29 10:51:20;;;;;;;10.20;8.57;;;17.40;28.60;;;;;;5011019;28;20450;-75
2023/01/29 10:54:00;;;;;;;9.60;7.60;;;18.10;27.00;;;;;;5017424;28;20523;-75
2023/01/29 10:56:52;;;;;;;11.10;9.90;;;18.40;27.90;;;;;;5011676;28;20442;-74
2023/01/29 10:59:41;;;;;;;8.77;7.30;;;18.80;27.50;;;;;;5014952;28;20479;-73
2023/01/29 11:02:16;;;;;;;11.40;8.87;;;19.60;26.50;;;;;;5018476;28;20505;-74
2023/01/29 11:04:44;;;;;;;11.50;9.17;;;20.10;26.10;;;;;;5007768;28;20434;-76
2023/01/29 11:07:12;;;;;;;10.37;8.87;;;19.90;25.00;;;;;;5014972;28;20858;-73
2023/01/29 11:09:43;;;;;;;10.03;8.67;;;19.30;24.20;;;;;;5010643;28;20518;-72
2023/01/29 11:12:14;;;;;;;12.80;9.03;;;18.50;24.60;;;;;;5014855;28;20438;-74
2023/01/29 11:14:50;;;;;;;12.17;8.70;;;17.70;24.80;;;;;;5011914;28;20443;-73
2023/01/29 11:17:18;;;;;;;10.93;8.57;;;17.20;25.90;;;;;;5012918;28;20438;-73
2023/01/29 11:19:47;;;;;;;11.13;8.60;;;16.60;25.40;;;;;;5026606;28;20564;-73
2023/01/29 11:22:18;;;;;;;12.13;7.83;;;15.90;25.80;;;;;;5012658;28;20817;-73
2023/01/29 11:24:46;;;;;;;9.13;7.67;;;15.20;26.90;;;;;;5016005;28;20493;-74
2023/01/29 11:27:24;;;;;;;10.70;7.60;;;14.80;27.60;;;;;;5016727;28;20438;-74
2023/01/29 11:29:53;;;;;;;9.63;7.90;;;14.30;28.20;;;;;;5008525;28;20521;-74
2023/01/29 11:32:32;;;;;;;11.10;7.80;;;14.00;28.70;;;;;;5007037;28;20430;-74
2023/01/29 11:35:01;;;;;;;10.50;7.13;;;13.50;28.80;;;;;;5010645;28;20467;-74
2023/01/29 11:37:35;;;;;;;10.67;7.90;;;13.00;29.30;;;;;;5011354;28;20439;-73
2023/01/29 11:40:28;;;;;;;12.73;9.63;;;12.40;29.80;;;;;;5011443;28;20537;-73
2023/01/29 11:42:55;;;;;;;20.47;14.23;;;11.90;30.10;;;;;;5010705;28;20439;-74
2023/01/29 11:45:31;;;;;;;12.80;9.40;;;11.30;30.50;;;;;;5009944;28;20443;-74
2023/01/29 11:47:59;;;;;;;14.48;8.60;;;10.80;31.20;;;;;;5008193;28;20191;-74
2023/01/29 11:50:29;;;;;;;11.50;8.07;;;10.40;32.60;;;;;;5011071;28;20192;-74
2023/01/29 11:52:56;;;;;;;11.13;8.45;;;10.00;33.40;;;;;;5011140;28;20234;-74
2023/01/29 11:55:26;;;;;;;9.48;7.47;;;9.70;35.00;;;;;;5010906;28;20718;-74
2023/01/29 11:57:59;;;;;;;9.68;7.47;;;9.50;35.90;;;;;;5011119;28;20210;-74
2023/01/29 12:00:31;;;;;;;10.43;7.63;;;9.30;36.60;;;;;;5010806;28;20199;-74
2023/01/29 12:03:03;;;;;;;9.63;7.30;;;9.00;36.70;;;;;;5011427;28;21398;-74
2023/01/29 12:05:30;;;;;;;9.48;6.25;;;8.90;37.20;;;;;;5011317;28;20196;-74
2023/01/29 12:08:00;;;;;;;12.75;6.57;;;8.80;37.70;;;;;;5010766;28;20191;-74
2023/01/29 12:10:32;;;;;;;10.75;7.50;;;8.80;37.80;;;;;;5006978;28;20269;-74
2023/01/29 12:13:17;;;;;;;8.60;5.88;;;8.70;38.10;;;;;;5011396;28;20203;-74
2023/01/29 12:15:47;;;;;;;9.23;6.35;;;8.50;38.40;;;;;;5011065;28;20226;-74
2023/01/29 12:18:21;;;;;;;9.32;6.30;;;8.50;38.50;;;;;;5010836;28;20211;-74
2023/01/29 12:20:54;;;;;;;10.18;7.50;;;8.50;38.70;;;;;;5011138;28;20202;-75
2023/01/29 12:23:31;;;;;;;9.82;7.93;;;8.50;38.60;;;;;;5011159;28;20195;-74
2023/01/29 12:26:02;;;;;;;12.90;8.65;;;8.50;38.70;;;;;;5010814;28;20191;-74
2023/01/29 12:28:42;;;;;;;13.25;10.43;;;8.30;37.60;;;;;;5011015;28;20200;-74
2023/01/29 12:31:23;;;;;;;12.80;8.20;;;8.20;37.80;;;;;;5008256;28;20238;-74
2023/01/29 12:33:59;;;;;;;12.50;8.20;;;8.20;38.20;;;;;;5010805;28;20188;-74
2023/01/29 12:36:31;;;;;;;9.75;7.75;;;8.60;39.00;;;;;;5012431;28;20253;-74
2023/01/29 12:38:58;;;;;;;12.68;8.70;;;9.10;38.50;;;;;;5019436;28;20211;-75
2023/01/29 12:41:35;;;;;;;13.23;9.75;;;9.60;37.40;;;;;;5020248;28;20226;-74
2023/01/29 12:44:12;;;;;;;11.63;8.32;;;10.30;36.60;;;;;;5013621;28;20183;-74
2023/01/29 12:46:44;;;;;;;13.77;8.50;;;10.90;35.50;;;;;;5013378;28;20665;-74
2023/01/29 12:49:16;;;;;;;12.38;9.82;;;11.10;34.40;;;;;;5013428;28;20194;-74
2023/01/29 12:51:50;;;;;;;9.93;8.07;;;11.10;34.10;;;;;;5013108;28;20283;-74
2023/01/29 12:54:23;;;;;;;11.43;8.70;;;10.90;34.30;;;;;;5011157;28;20307;-74
2023/01/29 12:56:56;;;;;;;11.90;8.90;;;10.80;34.70;;;;;;5009744;28;20184;-74
2023/01/29 12:59:30;;;;;;;13.93;9.52;;;10.70;34.00;;;;;;5012109;28;20649;-75
2023/01/29 13:02:04;;;;;;;12.80;9.73;;;10.60;34.70;;;;;;5010815;28;20195;-75
2023/01/29 13:04:39;;;;;;;11.75;8.70;;;10.60;35.00;;;;;;5013890;28;20685;-73
2023/01/29 13:07:13;;;;;;;11.88;9.30;;;10.80;35.30;;;;;;5019654;28;20283;-75
2023/01/29 13:09:45;;;;;;;10.73;8.15;;;11.10;35.00;;;;;;5019365;28;20194;-75
2023/01/29 13:12:16;;;;;;;12.10;9.07;;;11.20;34.20;;;;;;5013536;28;20670;-74
2023/01/29 13:14:48;;;;;;;13.90;9.50;;;11.10;33.70;;;;;;5013075;28;20192;-75
2023/01/29 13:17:25;;;;;;;11.27;8.90;;;10.90;33.70;;;;;;5008910;28;20230;-75
2023/01/29 13:19:55;;;;;;;14.43;9.90;;;10.80;33.60;;;;;;5015321;28;20219;-75
2023/01/29 13:22:25;;;;;;;12.82;9.63;;;10.70;33.90;;;;;;5012829;28;20199;-75
2023/01/29 13:24:54;;;;;;;16.63;10.65;;;10.50;33.90;;;;;;5010713;28;20191;-75
2023/01/29 13:27:25;;;;;;;12.30;9.18;;;10.40;33.90;;;;;;5012039;28;20254;-75
2023/01/29 13:29:53;;;;;;;12.02;9.55;;;10.30;34.10;;;;;;5019506;28;20266;-75
2023/01/29 13:32:25;;;;;;;12.18;9.20;;;10.10;34.40;;;;;;5013177;28;20191;-75